sensor_id;sensor_type;location;lat;lon;timestamp;temperature;humidity
3023;DHT22;1521;53.584;9.938;2022-12-07T12:42:56;10.10;1.00
3023;DHT22;1521;53.584;9.938;2022-12-07T12:45:32;10.70;1.00
3023;DHT22;1521;53.584;9.938;2022-12-07T12:48:01;11.20;1.00
3023;DHT22;1521;53.584;9.938;2022-12-07T12:50:35;11.50;1.00
3023;DHT22;1521;53.584;9.938;2022-12-07T12:56:26;10.80;1.00
3023;DHT22;1521;53.584;9.938;2022-12-07T12:59:33;9.60;1.00
3023;DHT22;1521;53.584;9.938;2022-12-07T13:02:29;8.70;1.00
3023;DHT22;1521;53.584;9.938;2022-12-07T13:28:39;6.50;1.00
3023;DHT22;1521;53.584;9.938;2022-12-07T13:33:35;5.70;1.00
3023;DHT22;1521;53.584;9.938;2022-12-07T13:36:01;5.40;1.00
3023;DHT22;1521;53.584;9.938;2022-12-07T13:38:33;5.30;1.00
3023;DHT22;1521;53.584;9.938;2022-12-07T13:41:12;5.30;1.00
3023;DHT22;1521;53.584;9.938;2022-12-07T13:43:53;5.30;1.00
3023;DHT22;1521;53.584;9.938;2022-12-07T13:46:25;5.30;1.00
3023;DHT22;1521;53.584;9.938;2022-12-07T13:48:52;5.20;1.00
3023;DHT22;1521;53.584;9.938;2022-12-07T13:51:26;5.10;1.00
3023;DHT22;1521;53.584;9.938;2022-12-07T13:54:08;4.90;1.00
3023;DHT22;1521;53.584;9.938;2022-12-07T13:56:35;4.90;1.00
3023;DHT22;1521;53.584;9.938;2022-12-07T13:59:02;4.80;1.00
3023;DHT22;1521;53.584;9.938;2022-12-07T14:01:30;4.90;1.00
3023;DHT22;1521;53.584;9.938;2022-12-07T14:04:00;4.70;1.00
3023;DHT22;1521;53.584;9.938;2022-12-07T14:06:48;4.70;1.00
3023;DHT22;1521;53.584;9.938;2022-12-07T14:09:19;4.60;1.00
3023;DHT22;1521;53.584;9.938;2022-12-07T14:11:47;4.50;1.00
3023;DHT22;1521;53.584;9.938;2022-12-07T14:14:32;4.40;1.00
3023;DHT22;1521;53.584;9.938;2022-12-07T14:17:12;4.40;1.00
3023;DHT22;1521;53.584;9.938;2022-12-07T14:22:20;4.30;1.00
3023;DHT22;1521;53.584;9.938;2022-12-07T14:24:47;4.30;1.00
3023;DHT22;1521;53.584;9.938;2022-12-07T14:27:20;4.20;1.00
3023;DHT22;1521;53.584;9.938;2022-12-07T14:29:47;4.10;1.00
3023;DHT22;1521;53.584;9.938;2022-12-07T14:32:20;4.00;1.00
3023;DHT22;1521;53.584;9.938;2022-12-07T14:37:26;3.80;1.00
3023;DHT22;1521;53.584;9.938;2022-12-07T14:39:52;3.80;1.00
3023;DHT22;1521;53.584;9.938;2022-12-07T14:42:17;3.70;1.00
3023;DHT22;1521;53.584;9.938;2022-12-07T14:44:44;3.60;1.00
3023;DHT22;1521;53.584;9.938;2022-12-07T14:47:10;3.50;1.00
3023;DHT22;1521;53.584;9.938;2022-12-07T14:49:36;3.50;1.00
3023;DHT22;1521;53.584;9.938;2022-12-07T14:52:02;3.40;1.00
3023;DHT22;1521;53.584;9.938;2022-12-07T14:54:31;3.20;1.00
3023;DHT22;1521;53.584;9.938;2022-12-07T14:56:57;3.10;1.00
3023;DHT22;1521;53.584;9.938;2022-12-07T14:59:23;3.00;1.00
3023;DHT22;1521;53.584;9.938;2022-12-07T15:01:49;2.90;1.00
3023;DHT22;1521;53.584;9.938;2022-12-07T15:04:14;2.80;1.00
3023;DHT22;1521;53.584;9.938;2022-12-07T15:06:40;2.70;1.00
3023;DHT22;1521;53.584;9.938;2022-12-07T15:09:10;2.70;1.00
3023;DHT22;1521;53.584;9.938;2022-12-07T15:11:36;2.60;1.00
3023;DHT22;1521;53.584;9.938;2022-12-07T15:14:02;2.60;1.00
3023;DHT22;1521;53.584;9.938;2022-12-07T15:16:35;2.50;1.00
3023;DHT22;1521;53.584;9.938;2022-12-07T15:19:01;2.50;1.00
3023;DHT22;1521;53.584;9.938;2022-12-07T15:21:26;2.50;1.00
3023;DHT22;1521;53.584;9.938;2022-12-07T15:23:52;2.40;1.00
3023;DHT22;1521;53.584;9.938;2022-12-07T15:26:18;2.40;1.00
3023;DHT22;1521;53.584;9.938;2022-12-07T15:28:44;2.40;1.00
3023;DHT22;1521;53.584;9.938;2022-12-07T15:31:16;2.30;1.00
3023;DHT22;1521;53.584;9.938;2022-12-07T15:33:42;2.30;1.00
3023;DHT22;1521;53.584;9.938;2022-12-07T15:36:08;2.20;1.00
3023;DHT22;1521;53.584;9.938;2022-12-07T15:38:41;2.20;1.00
3023;DHT22;1521;53.584;9.938;2022-12-07T15:41:07;2.10;1.00
3023;DHT22;1521;53.584;9.938;2022-12-07T15:43:32;2.10;1.00
3023;DHT22;1521;53.584;9.938;2022-12-07T15:46:16;2.10;1.00
3023;DHT22;1521;53.584;9.938;2022-12-07T15:48:42;2.00;1.00
3023;DHT22;1521;53.584;9.938;2022-12-07T15:51:08;2.00;1.00
3023;DHT22;1521;53.584;9.938;2022-12-07T15:53:35;1.90;1.00
3023;DHT22;1521;53.584;9.938;2022-12-07T15:56:01;1.90;1.00
3023;DHT22;1521;53.584;9.938;2022-12-07T15:58:26;1.80;1.00
3023;DHT22;1521;53.584;9.938;2022-12-07T16:00:52;1.80;1.00
3023;DHT22;1521;53.584;9.938;2022-12-07T16:03:18;1.70;1.00
3023;DHT22;1521;53.584;9.938;2022-12-07T16:05:49;1.70;1.00
3023;DHT22;1521;53.584;9.938;2022-12-07T16:08:15;1.60;1.00
3023;DHT22;1521;53.584;9.938;2022-12-07T16:10:41;1.60;1.00
3023;DHT22;1521;53.584;9.938;2022-12-07T16:13:09;1.60;1.00
3023;DHT22;1521;53.584;9.938;2022-12-07T16:15:41;1.60;1.00
3023;DHT22;1521;53.584;9.938;2022-12-07T16:18:07;1.60;1.00
3023;DHT22;1521;53.584;9.938;2022-12-07T16:20:33;1.60;1.00
3023;DHT22;1521;53.584;9.938;2022-12-07T16:22:58;1.60;1.00
3023;DHT22;1521;53.584;9.938;2022-12-07T16:25:24;1.50;1.00
3023;DHT22;1521;53.584;9.938;2022-12-07T16:27:51;1.50;3.80
3023;DHT22;1521;53.584;9.938;2022-12-07T16:30:17;1.50;6.50
3023;DHT22;1521;53.584;9.938;2022-12-07T16:32:42;1.50;13.10
3023;DHT22;1521;53.584;9.938;2022-12-07T16:35:09;1.50;22.80
3023;DHT22;1521;53.584;9.938;2022-12-07T16:37:34;1.50;28.30
3023;DHT22;1521;53.584;9.938;2022-12-07T16:40:00;1.50;24.10
3023;DHT22;1521;53.584;9.938;2022-12-07T16:42:26;1.50;19.70
3023;DHT22;1521;53.584;9.938;2022-12-07T16:44:52;1.50;19.90
3023;DHT22;1521;53.584;9.938;2022-12-07T16:47:17;1.50;18.00
3023;DHT22;1521;53.584;9.938;2022-12-07T16:49:43;1.40;15.70
3023;DHT22;1521;53.584;9.938;2022-12-07T16:52:09;1.40;15.50
3023;DHT22;1521;53.584;9.938;2022-12-07T16:54:36;1.40;15.50
3023;DHT22;1521;53.584;9.938;2022-12-07T16:57:01;1.40;10.80
3023;DHT22;1521;53.584;9.938;2022-12-07T16:59:27;1.40;8.80
3023;DHT22;1521;53.584;9.938;2022-12-07T17:01:52;1.40;3.60
3023;DHT22;1521;53.584;9.938;2022-12-07T17:04:18;1.40;1.00
3023;DHT22;1521;53.584;9.938;2022-12-07T17:06:43;1.40;1.00
3023;DHT22;1521;53.584;9.938;2022-12-07T17:09:09;1.40;1.50
3023;DHT22;1521;53.584;9.938;2022-12-07T17:11:35;1.50;1.00
3023;DHT22;1521;53.584;9.938;2022-12-07T17:14:01;1.40;1.00
3023;DHT22;1521;53.584;9.938;2022-12-07T17:16:46;1.40;1.00
3023;DHT22;1521;53.584;9.938;2022-12-07T17:19:14;1.40;1.00
3023;DHT22;1521;53.584;9.938;2022-12-07T17:21:40;1.40;1.00
3023;DHT22;1521;53.584;9.938;2022-12-07T17:24:08;1.40;1.00
3023;DHT22;1521;53.584;9.938;2022-12-07T17:26:34;1.40;1.00
3023;DHT22;1521;53.584;9.938;2022-12-07T17:28:59;1.40;1.00
3023;DHT22;1521;53.584;9.938;2022-12-07T17:31:25;1.40;1.00
3023;DHT22;1521;53.584;9.938;2022-12-07T17:33:51;1.40;1.00
3023;DHT22;1521;53.584;9.938;2022-12-07T17:36:18;1.30;1.00
3023;DHT22;1521;53.584;9.938;2022-12-07T17:38:44;1.30;1.00
